sensor_id;sensor_type;location;lat;lon;timestamp;P1;durP1;ratioP1;P2;durP2;ratioP2
1180;SDS011;579;52.046;8.532;2023-05-06T00:00:17;0.30;;;0.30;;
1180;SDS011;579;52.046;8.532;2023-05-06T00:02:45;0.30;;;0.30;;
1180;SDS011;579;52.046;8.532;2023-05-06T00:05:30;0.22;;;0.22;;
1180;SDS011;579;52.046;8.532;2023-05-06T00:07:57;0.20;;;0.20;;
1180;SDS011;579;52.046;8.532;2023-05-06T00:10:23;0.20;;;0.20;;
1180;SDS011;579;52.046;8.532;2023-05-06T00:16:28;0.30;;;0.30;;
1180;SDS011;579;52.046;8.532;2023-05-06T00:18:54;0.30;;;0.30;;
1180;SDS011;579;52.046;8.532;2023-05-06T00:21:20;0.40;;;0.40;;
1180;SDS011;579;52.046;8.532;2023-05-06T00:23:47;0.30;;;0.30;;
1180;SDS011;579;52.046;8.532;2023-05-06T00:26:13;0.30;;;0.30;;
1180;SDS011;579;52.046;8.532;2023-05-06T00:28:40;0.45;;;0.45;;
1180;SDS011;579;52.046;8.532;2023-05-06T00:31:06;0.40;;;0.40;;
1180;SDS011;579;52.046;8.532;2023-05-06T00:38:34;0.50;;;0.50;;
1180;SDS011;579;52.046;8.532;2023-05-06T00:41:01;0.40;;;0.40;;
1180;SDS011;579;52.046;8.532;2023-05-06T00:43:27;0.40;;;0.40;;
1180;SDS011;579;52.046;8.532;2023-05-06T00:45:54;0.40;;;0.40;;
1180;SDS011;579;52.046;8.532;2023-05-06T00:48:20;0.30;;;0.30;;
1180;SDS011;579;52.046;8.532;2023-05-06T00:50:46;0.40;;;0.40;;
1180;SDS011;579;52.046;8.532;2023-05-06T00:53:13;0.30;;;0.30;;
1180;SDS011;579;52.046;8.532;2023-05-06T01:00:46;0.20;;;0.20;;
1180;SDS011;579;52.046;8.532;2023-05-06T01:03:12;0.30;;;0.30;;
1180;SDS011;579;52.046;8.532;2023-05-06T01:05:46;0.38;;;0.38;;
1180;SDS011;579;52.046;8.532;2023-05-06T01:08:22;0.20;;;0.20;;
1180;SDS011;579;52.046;8.532;2023-05-06T01:10:56;0.32;;;0.32;;
1180;SDS011;579;52.046;8.532;2023-05-06T01:13:30;0.28;;;0.28;;
1180;SDS011;579;52.046;8.532;2023-05-06T01:16:04;0.25;;;0.25;;
1180;SDS011;579;52.046;8.532;2023-05-06T01:22:58;0.20;;;0.20;;
1180;SDS011;579;52.046;8.532;2023-05-06T01:25:26;0.20;;;0.20;;
1180;SDS011;579;52.046;8.532;2023-05-06T01:27:54;0.20;;;0.20;;
1180;SDS011;579;52.046;8.532;2023-05-06T01:30:20;0.28;;;0.28;;
1180;SDS011;579;52.046;8.532;2023-05-06T01:32:57;0.35;;;0.35;;
1180;SDS011;579;52.046;8.532;2023-05-06T01:35:32;0.28;;;0.28;;
1180;SDS011;579;52.046;8.532;2023-05-06T01:38:07;0.30;;;0.30;;
1180;SDS011;579;52.046;8.532;2023-05-06T01:41:09;0.20;;;0.20;;
1180;SDS011;579;52.046;8.532;2023-05-06T01:43:42;0.20;;;0.20;;
1180;SDS011;579;52.046;8.532;2023-05-06T01:46:10;0.20;;;0.20;;
1180;SDS011;579;52.046;8.532;2023-05-06T01:48:41;0.30;;;0.30;;
1180;SDS011;579;52.046;8.532;2023-05-06T01:51:10;0.20;;;0.20;;
1180;SDS011;579;52.046;8.532;2023-05-06T01:53:36;0.10;;;0.10;;
1180;SDS011;579;52.046;8.532;2023-05-06T01:56:03;0.20;;;0.20;;
1180;SDS011;579;52.046;8.532;2023-05-06T02:01:10;0.30;;;0.30;;
1180;SDS011;579;52.046;8.532;2023-05-06T02:03:36;0.38;;;0.38;;
1180;SDS011;579;52.046;8.532;2023-05-06T02:06:03;0.40;;;0.40;;
1180;SDS011;579;52.046;8.532;2023-05-06T02:08:29;0.20;;;0.20;;
1180;SDS011;579;52.046;8.532;2023-05-06T02:10:55;0.35;;;0.35;;
1180;SDS011;579;52.046;8.532;2023-05-06T02:13:22;0.20;;;0.20;;
1180;SDS011;579;52.046;8.532;2023-05-06T02:15:50;0.20;;;0.20;;
1180;SDS011;579;52.046;8.532;2023-05-06T02:23:23;0.25;;;0.25;;
1180;SDS011;579;52.046;8.532;2023-05-06T02:25:50;0.20;;;0.20;;
1180;SDS011;579;52.046;8.532;2023-05-06T02:28:16;0.20;;;0.20;;
1180;SDS011;579;52.046;8.532;2023-05-06T02:30:42;0.30;;;0.30;;
1180;SDS011;579;52.046;8.532;2023-05-06T02:33:09;0.20;;;0.20;;
1180;SDS011;579;52.046;8.532;2023-05-06T02:35:35;0.30;;;0.30;;
1180;SDS011;579;52.046;8.532;2023-05-06T02:38:01;0.30;;;0.30;;
1180;SDS011;579;52.046;8.532;2023-05-06T02:45:33;0.40;;;0.40;;
1180;SDS011;579;52.046;8.532;2023-05-06T02:48:00;0.32;;;0.32;;
1180;SDS011;579;52.046;8.532;2023-05-06T02:50:26;0.20;;;0.20;;
1180;SDS011;579;52.046;8.532;2023-05-06T02:52:52;0.45;;;0.45;;
1180;SDS011;579;52.046;8.532;2023-05-06T02:55:19;0.20;;;0.20;;
1180;SDS011;579;52.046;8.532;2023-05-06T02:57:45;0.22;;;0.22;;
1180;SDS011;579;52.046;8.532;2023-05-06T03:00:12;0.30;;;0.30;;
1180;SDS011;579;52.046;8.532;2023-05-06T03:05:19;0.20;;;0.20;;
1180;SDS011;579;52.046;8.532;2023-05-06T03:07:45;0.30;;;0.30;;
1180;SDS011;579;52.046;8.532;2023-05-06T03:10:11;0.30;;;0.30;;
1180;SDS011;579;52.046;8.532;2023-05-06T03:12:38;0.20;;;0.20;;
1180;SDS011;579;52.046;8.532;2023-05-06T03:15:05;0.20;;;0.20;;
1180;SDS011;579;52.046;8.532;2023-05-06T03:17:32;0.20;;;0.20;;
1180;SDS011;579;52.046;8.532;2023-05-06T03:19:58;0.20;;;0.20;;
1180;SDS011;579;52.046;8.532;2023-05-06T03:27:31;0.20;;;0.20;;
1180;SDS011;579;52.046;8.532;2023-05-06T03:29:57;0.20;;;0.20;;
1180;SDS011;579;52.046;8.532;2023-05-06T03:32:23;0.10;;;0.10;;
1180;SDS011;579;52.046;8.532;2023-05-06T03:34:50;0.20;;;0.20;;
1180;SDS011;579;52.046;8.532;2023-05-06T03:37:16;0.10;;;0.10;;
1180;SDS011;579;52.046;8.532;2023-05-06T03:39:43;0.17;;;0.17;;
1180;SDS011;579;52.046;8.532;2023-05-06T03:42:09;0.20;;;0.20;;
1180;SDS011;579;52.046;8.532;2023-05-06T03:49:41;0.20;;;0.20;;
1180;SDS011;579;52.046;8.532;2023-05-06T03:52:07;0.20;;;0.20;;
1180;SDS011;579;52.046;8.532;2023-05-06T03:54:33;0.10;;;0.10;;
1180;SDS011;579;52.046;8.532;2023-05-06T03:56:59;0.20;;;0.20;;
1180;SDS011;579;52.046;8.532;2023-05-06T03:59:26;0.20;;;0.20;;
1180;SDS011;579;52.046;8.532;2023-05-06T04:01:52;0.20;;;0.20;;
1180;SDS011;579;52.046;8.532;2023-05-06T04:04:19;0.20;;;0.20;;
1180;SDS011;579;52.046;8.532;2023-05-06T04:11:46;0.20;;;0.20;;
1180;SDS011;579;52.046;8.532;2023-05-06T04:14:12;0.10;;;0.10;;
1180;SDS011;579;52.046;8.532;2023-05-06T04:16:38;0.10;;;0.10;;
1180;SDS011;579;52.046;8.532;2023-05-06T04:19:04;0.20;;;0.20;;
1180;SDS011;579;52.046;8.532;2023-05-06T04:21:32;0.10;;;0.10;;
1180;SDS011;579;52.046;8.532;2023-05-06T04:23:58;0.10;;;0.10;;
1180;SDS011;579;52.046;8.532;2023-05-06T04:26:25;0.10;;;0.10;;
1180;SDS011;579;52.046;8.532;2023-05-06T04:34:56;0.30;;;0.30;;
1180;SDS011;579;52.046;8.532;2023-05-06T04:37:23;0.20;;;0.20;;
1180;SDS011;579;52.046;8.532;2023-05-06T04:39:52;0.20;;;0.20;;
1180;SDS011;579;52.046;8.532;2023-05-06T04:42:18;0.20;;;0.20;;
1180;SDS011;579;52.046;8.532;2023-05-06T04:44:45;0.20;;;0.20;;
1180;SDS011;579;52.046;8.532;2023-05-06T04:47:12;0.22;;;0.22;;
1180;SDS011;579;52.046;8.532;2023-05-06T04:49:40;0.30;;;0.30;;
1180;SDS011;579;52.046;8.532;2023-05-06T04:55:54;0.10;;;0.10;;
1180;SDS011;579;52.046;8.532;2023-05-06T04:58:21;0.10;;;0.10;;
1180;SDS011;579;52.046;8.532;2023-05-06T05:00:48;0.10;;;0.10;;
1180;SDS011;579;52.046;8.532;2023-05-06T05:03:14;0.10;;;0.10;;
1180;SDS011;579;52.046;8.532;2023-05-06T05:05:41;0.10;;;0.10;;
1180;SDS011;579;52.046;8.532;2023-05-06T05:08:08;0.10;;;0.10;;
1180;SDS011;579;52.046;8.532;2023-05-06T05:10:35;0.10;;;0.10;;
1180;SDS011;579;52.046;8.532;2023-05-06T05:18:08;0.20;;;0.20;;
1180;SDS011;579;52.046;8.532;2023-05-06T05:20:35;0.20;;;0.20;;
1180;SDS011;579;52.046;8.532;2023-05-06T05:23:01;0.10;;;0.10;;
1180;SDS011;579;52.046;8.532;2023-05-06T05:25:28;0.20;;;0.20;;
1180;SDS011;579;52.046;8.532;2023-05-06T05:27:54;0.15;;;0.15;;
1180;SDS011;579;52.046;8.532;2023-05-06T05:30:21;0.20;;;0.20;;
1180;SDS011;579;52.046;8.532;2023-05-06T05:32:47;0.20;;;0.20;;
1180;SDS011;579;52.046;8.532;2023-05-06T05:40:19;0.20;;;0.20;;
1180;SDS011;579;52.046;8.532;2023-05-06T05:42:45;0.20;;;0.20;;
1180;SDS011;579;52.046;8.532;2023-05-06T05:45:12;0.20;;;0.20;;
1180;SDS011;579;52.046;8.532;2023-05-06T05:47:42;0.20;;;0.20;;
1180;SDS011;579;52.046;8.532;2023-05-06T05:50:09;0.20;;;0.20;;
1180;SDS011;579;52.046;8.532;2023-05-06T05:52:35;0.45;;;0.45;;
1180;SDS011;579;52.046;8.532;2023-05-06T05:55:02;0.20;;;0.20;;
1180;SDS011;579;52.046;8.532;2023-05-06T06:00:10;0.20;;;0.20;;
1180;SDS011;579;52.046;8.532;2023-05-06T06:02:37;0.17;;;0.17;;
1180;SDS011;579;52.046;8.532;2023-05-06T06:05:04;0.20;;;0.20;;
1180;SDS011;579;52.046;8.532;2023-05-06T06:07:31;0.20;;;0.20;;
1180;SDS011;579;52.046;8.532;2023-05-06T06:09:58;0.10;;;0.10;;
1180;SDS011;579;52.046;8.532;2023-05-06T06:12:24;0.10;;;0.10;;
1180;SDS011;579;52.046;8.532;2023-05-06T06:14:50;0.15;;;0.15;;
1180;SDS011;579;52.046;8.532;2023-05-06T06:22:08;0.20;;;0.20;;
1180;SDS011;579;52.046;8.532;2023-05-06T06:24:35;0.10;;;0.10;;
1180;SDS011;579;52.046;8.532;2023-05-06T06:27:01;0.10;;;0.10;;
1180;SDS011;579;52.046;8.532;2023-05-06T06:29:27;0.10;;;0.10;;
1180;SDS011;579;52.046;8.532;2023-05-06T06:31:54;0.30;;;0.30;;
1180;SDS011;579;52.046;8.532;2023-05-06T06:34:20;0.30;;;0.30;;
1180;SDS011;579;52.046;8.532;2023-05-06T06:36:47;0.20;;;0.20;;
1180;SDS011;579;52.046;8.532;2023-05-06T06:43:29;0.40;;;0.40;;
1180;SDS011;579;52.046;8.532;2023-05-06T06:45:55;0.40;;;0.40;;
1180;SDS011;579;52.046;8.532;2023-05-06T06:48:22;0.47;;;0.47;;
1180;SDS011;579;52.046;8.532;2023-05-06T06:50:48;0.50;;;0.50;;
1180;SDS011;579;52.046;8.532;2023-05-06T06:53:14;0.40;;;0.40;;
1180;SDS011;579;52.046;8.532;2023-05-06T06:55:41;0.38;;;0.38;;
1180;SDS011;579;52.046;8.532;2023-05-06T06:58:08;0.60;;;0.60;;
1180;SDS011;579;52.046;8.532;2023-05-06T07:03:31;0.20;;;0.20;;
1180;SDS011;579;52.046;8.532;2023-05-06T07:05:59;0.40;;;0.40;;
1180;SDS011;579;52.046;8.532;2023-05-06T07:08:25;0.32;;;0.32;;
1180;SDS011;579;52.046;8.532;2023-05-06T07:10:51;0.30;;;0.30;;
1180;SDS011;579;52.046;8.532;2023-05-06T07:13:17;0.40;;;0.40;;
1180;SDS011;579;52.046;8.532;2023-05-06T07:15:46;0.38;;;0.38;;
1180;SDS011;579;52.046;8.532;2023-05-06T07:18:13;0.60;;;0.60;;
1180;SDS011;579;52.046;8.532;2023-05-06T07:25:33;0.55;;;0.55;;
1180;SDS011;579;52.046;8.532;2023-05-06T07:27:59;0.32;;;0.32;;
1180;SDS011;579;52.046;8.532;2023-05-06T07:30:26;0.38;;;0.38;;
1180;SDS011;579;52.046;8.532;2023-05-06T07:32:52;0.50;;;0.50;;
1180;SDS011;579;52.046;8.532;2023-05-06T07:35:18;0.40;;;0.40;;
1180;SDS011;579;52.046;8.532;2023-05-06T07:37:44;0.50;;;0.50;;
1180;SDS011;579;52.046;8.532;2023-05-06T07:40:11;0.90;;;0.90;;
1180;SDS011;579;52.046;8.532;2023-05-06T07:47:53;0.40;;;0.40;;
1180;SDS011;579;52.046;8.532;2023-05-06T07:50:19;0.40;;;0.40;;
1180;SDS011;579;52.046;8.532;2023-05-06T07:52:45;0.50;;;0.50;;
1180;SDS011;579;52.046;8.532;2023-05-06T07:55:11;0.70;;;0.70;;
1180;SDS011;579;52.046;8.532;2023-05-06T07:57:37;0.50;;;0.50;;
1180;SDS011;579;52.046;8.532;2023-05-06T08:00:04;0.90;;;0.90;;
1180;SDS011;579;52.046;8.532;2023-05-06T08:02:33;0.35;;;0.35;;
1180;SDS011;579;52.046;8.532;2023-05-06T08:07:40;0.35;;;0.35;;
1180;SDS011;579;52.046;8.532;2023-05-06T08:10:07;0.50;;;0.50;;
1180;SDS011;579;52.046;8.532;2023-05-06T08:12:34;0.60;;;0.60;;
1180;SDS011;579;52.046;8.532;2023-05-06T08:15:02;0.60;;;0.60;;
1180;SDS011;579;52.046;8.532;2023-05-06T08:17:28;0.40;;;0.40;;
1180;SDS011;579;52.046;8.532;2023-05-06T08:19:55;0.60;;;0.60;;
1180;SDS011;579;52.046;8.532;2023-05-06T08:22:21;0.50;;;0.50;;
1180;SDS011;579;52.046;8.532;2023-05-06T08:29:28;0.40;;;0.40;;
1180;SDS011;579;52.046;8.532;2023-05-06T08:31:55;0.35;;;0.35;;
1180;SDS011;579;52.046;8.532;2023-05-06T08:34:21;0.35;;;0.35;;
1180;SDS011;579;52.046;8.532;2023-05-06T08:36:47;0.40;;;0.40;;
1180;SDS011;579;52.046;8.532;2023-05-06T08:39:14;0.30;;;0.30;;
1180;SDS011;579;52.046;8.532;2023-05-06T08:41:43;0.30;;;0.30;;
1180;SDS011;579;52.046;8.532;2023-05-06T08:44:13;0.40;;;0.40;;
1180;SDS011;579;52.046;8.532;2023-05-06T08:49:57;0.30;;;0.30;;
1180;SDS011;579;52.046;8.532;2023-05-06T08:52:25;0.20;;;0.20;;
1180;SDS011;579;52.046;8.532;2023-05-06T08:54:52;0.30;;;0.30;;
1180;SDS011;579;52.046;8.532;2023-05-06T08:57:25;0.25;;;0.25;;
1180;SDS011;579;52.046;8.532;2023-05-06T08:59:54;0.20;;;0.20;;
1180;SDS011;579;52.046;8.532;2023-05-06T09:02:20;0.25;;;0.25;;
1180;SDS011;579;52.046;8.532;2023-05-06T09:04:47;0.38;;;0.38;;
1180;SDS011;579;52.046;8.532;2023-05-06T09:09:47;0.52;;;0.52;;
1180;SDS011;579;52.046;8.532;2023-05-06T09:12:16;0.38;;;0.38;;
1180;SDS011;579;52.046;8.532;2023-05-06T09:14:42;0.50;;;0.50;;
1180;SDS011;579;52.046;8.532;2023-05-06T09:17:16;0.50;;;0.50;;
1180;SDS011;579;52.046;8.532;2023-05-06T09:19:49;0.50;;;0.50;;
1180;SDS011;579;52.046;8.532;2023-05-06T09:22:17;0.50;;;0.50;;
1180;SDS011;579;52.046;8.532;2023-05-06T09:24:45;0.40;;;0.40;;
1180;SDS011;579;52.046;8.532;2023-05-06T09:27:31;0.60;;;0.60;;
1180;SDS011;579;52.046;8.532;2023-05-06T09:30:01;0.30;;;0.30;;
1180;SDS011;579;52.046;8.532;2023-05-06T09:32:29;0.40;;;0.40;;
1180;SDS011;579;52.046;8.532;2023-05-06T09:34:56;0.40;;;0.40;;
1180;SDS011;579;52.046;8.532;2023-05-06T09:37:23;0.30;;;0.30;;
1180;SDS011;579;52.046;8.532;2023-05-06T09:39:52;0.20;;;0.20;;
1180;SDS011;579;52.046;8.532;2023-05-06T09:42:20;0.38;;;0.38;;
1180;SDS011;579;52.046;8.532;2023-05-06T09:49:28;0.50;;;0.50;;
1180;SDS011;579;52.046;8.532;2023-05-06T09:51:55;0.40;;;0.40;;
1180;SDS011;579;52.046;8.532;2023-05-06T09:54:21;0.35;;;0.35;;
1180;SDS011;579;52.046;8.532;2023-05-06T09:56:49;0.45;;;0.45;;
1180;SDS011;579;52.046;8.532;2023-05-06T09:59:16;0.50;;;0.50;;
1180;SDS011;579;52.046;8.532;2023-05-06T10:01:43;0.50;;;0.50;;
1180;SDS011;579;52.046;8.532;2023-05-06T10:04:10;0.60;;;0.60;;
1180;SDS011;579;52.046;8.532;2023-05-06T10:11:30;0.20;;;0.20;;
1180;SDS011;579;52.046;8.532;2023-05-06T10:14:02;0.37;;;0.37;;
1180;SDS011;579;52.046;8.532;2023-05-06T10:16:29;0.23;;;0.23;;
1180;SDS011;579;52.046;8.532;2023-05-06T10:18:57;0.50;;;0.50;;
1180;SDS011;579;52.046;8.532;2023-05-06T10:21:25;0.30;;;0.30;;
1180;SDS011;579;52.046;8.532;2023-05-06T10:23:59;0.30;;;0.30;;
1180;SDS011;579;52.046;8.532;2023-05-06T10:26:31;0.40;;;0.40;;
1180;SDS011;579;52.046;8.532;2023-05-06T10:33:59;0.20;;;0.20;;
1180;SDS011;579;52.046;8.532;2023-05-06T10:36:30;0.20;;;0.20;;
1180;SDS011;579;52.046;8.532;2023-05-06T10:39:00;0.20;;;0.20;;
1180;SDS011;579;52.046;8.532;2023-05-06T10:41:28;0.10;;;0.10;;
1180;SDS011;579;52.046;8.532;2023-05-06T10:43:56;0.10;;;0.10;;
1180;SDS011;579;52.046;8.532;2023-05-06T10:46:23;0.20;;;0.20;;
1180;SDS011;579;52.046;8.532;2023-05-06T10:52:08;0.20;;;0.20;;
1180;SDS011;579;52.046;8.532;2023-05-06T10:54:46;0.20;;;0.20;;
1180;SDS011;579;52.046;8.532;2023-05-06T10:57:14;0.20;;;0.20;;
1180;SDS011;579;52.046;8.532;2023-05-06T10:59:43;0.17;;;0.17;;
1180;SDS011;579;52.046;8.532;2023-05-06T11:02:11;0.10;;;0.10;;
1180;SDS011;579;52.046;8.532;2023-05-06T11:04:38;0.20;;;0.20;;
1180;SDS011;579;52.046;8.532;2023-05-06T11:07:05;0.20;;;0.20;;
1180;SDS011;579;52.046;8.532;2023-05-06T11:13:34;0.10;;;0.10;;
1180;SDS011;579;52.046;8.532;2023-05-06T11:16:00;0.10;;;0.10;;
1180;SDS011;579;52.046;8.532;2023-05-06T11:18:42;0.10;;;0.10;;
1180;SDS011;579;52.046;8.532;2023-05-06T11:24:10;0.10;;;0.10;;
1180;SDS011;579;52.046;8.532;2023-05-06T11:26:38;0.10;;;0.10;;
1180;SDS011;579;52.046;8.532;2023-05-06T11:31:47;0.10;;;0.10;;
1180;SDS011;579;52.046;8.532;2023-05-06T11:34:24;0.10;;;0.10;;
1180;SDS011;579;52.046;8.532;2023-05-06T11:36:57;0.20;;;0.20;;
1180;SDS011;579;52.046;8.532;2023-05-06T11:39:28;0.10;;;0.10;;
1180;SDS011;579;52.046;8.532;2023-05-06T11:41:59;0.13;;;0.13;;
1180;SDS011;579;52.046;8.532;2023-05-06T11:44:28;0.10;;;0.10;;
1180;SDS011;579;52.046;8.532;2023-05-06T11:46:57;0.10;;;0.10;;
1180;SDS011;579;52.046;8.532;2023-05-06T11:54:06;0.10;;;0.10;;
1180;SDS011;579;52.046;8.532;2023-05-06T11:56:43;0.20;;;0.20;;
1180;SDS011;579;52.046;8.532;2023-05-06T11:59:11;0.30;;;0.30;;
1180;SDS011;579;52.046;8.532;2023-05-06T12:01:42;0.20;;;0.20;;
1180;SDS011;579;52.046;8.532;2023-05-06T12:04:09;0.30;;;0.30;;
1180;SDS011;579;52.046;8.532;2023-05-06T12:06:36;0.23;;;0.23;;
1180;SDS011;579;52.046;8.532;2023-05-06T12:09:04;0.30;;;0.30;;
1180;SDS011;579;52.046;8.532;2023-05-06T12:11:57;0.20;;;0.20;;
1180;SDS011;579;52.046;8.532;2023-05-06T12:14:24;0.20;;;0.20;;
1180;SDS011;579;52.046;8.532;2023-05-06T12:16:50;0.20;;;0.20;;
1180;SDS011;579;52.046;8.532;2023-05-06T12:19:17;0.20;;;0.20;;
1180;SDS011;579;52.046;8.532;2023-05-06T12:21:43;0.20;;;0.20;;
1180;SDS011;579;52.046;8.532;2023-05-06T12:24:10;0.20;;;0.20;;
1180;SDS011;579;52.046;8.532;2023-05-06T12:26:43;0.20;;;0.20;;
1180;SDS011;579;52.046;8.532;2023-05-06T12:34:16;0.20;;;0.20;;
1180;SDS011;579;52.046;8.532;2023-05-06T12:37:01;0.50;;;0.50;;
1180;SDS011;579;52.046;8.532;2023-05-06T12:39:32;0.10;;;0.10;;
1180;SDS011;579;52.046;8.532;2023-05-06T12:42:00;0.20;;;0.20;;
1180;SDS011;579;52.046;8.532;2023-05-06T12:44:30;0.10;;;0.10;;
1180;SDS011;579;52.046;8.532;2023-05-06T12:46:58;0.10;;;0.10;;
1180;SDS011;579;52.046;8.532;2023-05-06T12:52:08;0.20;;;0.20;;
1180;SDS011;579;52.046;8.532;2023-05-06T12:54:36;0.20;;;0.20;;
1180;SDS011;579;52.046;8.532;2023-05-06T12:57:02;0.20;;;0.20;;
1180;SDS011;579;52.046;8.532;2023-05-06T12:59:29;0.20;;;0.20;;
1180;SDS011;579;52.046;8.532;2023-05-06T13:01:57;0.10;;;0.10;;
1180;SDS011;579;52.046;8.532;2023-05-06T13:04:23;0.10;;;0.10;;
1180;SDS011;579;52.046;8.532;2023-05-06T13:06:50;0.10;;;0.10;;
1180;SDS011;579;52.046;8.532;2023-05-06T13:11:56;0.20;;;0.20;;
1180;SDS011;579;52.046;8.532;2023-05-06T13:14:23;0.17;;;0.17;;
1180;SDS011;579;52.046;8.532;2023-05-06T13:16:49;0.20;;;0.20;;
1180;SDS011;579;52.046;8.532;2023-05-06T13:19:15;0.10;;;0.10;;
1180;SDS011;579;52.046;8.532;2023-05-06T13:21:42;0.20;;;0.20;;
1180;SDS011;579;52.046;8.532;2023-05-06T13:24:09;0.20;;;0.20;;
1180;SDS011;579;52.046;8.532;2023-05-06T13:26:36;0.20;;;0.20;;
1180;SDS011;579;52.046;8.532;2023-05-06T13:34:00;0.13;;;0.13;;
1180;SDS011;579;52.046;8.532;2023-05-06T13:36:26;0.20;;;0.20;;
1180;SDS011;579;52.046;8.532;2023-05-06T13:38:52;0.20;;;0.20;;
1180;SDS011;579;52.046;8.532;2023-05-06T13:41:19;0.10;;;0.10;;
1180;SDS011;579;52.046;8.532;2023-05-06T13:43:46;0.20;;;0.20;;
1180;SDS011;579;52.046;8.532;2023-05-06T13:46:12;0.27;;;0.27;;
1180;SDS011;579;52.046;8.532;2023-05-06T13:48:38;0.20;;;0.20;;
1180;SDS011;579;52.046;8.532;2023-05-06T13:53:44;0.30;;;0.30;;
1180;SDS011;579;52.046;8.532;2023-05-06T13:56:10;0.20;;;0.20;;
1180;SDS011;579;52.046;8.532;2023-05-06T13:58:37;0.10;;;0.10;;
1180;SDS011;579;52.046;8.532;2023-05-06T14:01:03;0.23;;;0.23;;
1180;SDS011;579;52.046;8.532;2023-05-06T14:03:30;0.10;;;0.10;;
1180;SDS011;579;52.046;8.532;2023-05-06T14:05:57;0.40;;;0.40;;
1180;SDS011;579;52.046;8.532;2023-05-06T14:08:25;0.20;;;0.20;;
1180;SDS011;579;52.046;8.532;2023-05-06T14:14:36;0.20;;;0.20;;
1180;SDS011;579;52.046;8.532;2023-05-06T14:17:02;0.20;;;0.20;;
1180;SDS011;579;52.046;8.532;2023-05-06T14:19:29;0.10;;;0.10;;
1180;SDS011;579;52.046;8.532;2023-05-06T14:21:55;0.23;;;0.23;;
1180;SDS011;579;52.046;8.532;2023-05-06T14:24:21;0.20;;;0.20;;
1180;SDS011;579;52.046;8.532;2023-05-06T14:26:48;0.20;;;0.20;;
1180;SDS011;579;52.046;8.532;2023-05-06T14:29:14;0.20;;;0.20;;
1180;SDS011;579;52.046;8.532;2023-05-06T14:36:48;0.20;;;0.20;;
1180;SDS011;579;52.046;8.532;2023-05-06T14:39:15;0.20;;;0.20;;
1180;SDS011;579;52.046;8.532;2023-05-06T14:41:41;0.20;;;0.20;;
1180;SDS011;579;52.046;8.532;2023-05-06T14:44:07;0.20;;;0.20;;
1180;SDS011;579;52.046;8.532;2023-05-06T14:46:33;0.20;;;0.20;;
1180;SDS011;579;52.046;8.532;2023-05-06T14:49:00;0.10;;;0.10;;
1180;SDS011;579;52.046;8.532;2023-05-06T14:51:27;0.20;;;0.20;;
1180;SDS011;579;52.046;8.532;2023-05-06T14:58:03;0.20;;;0.20;;
1180;SDS011;579;52.046;8.532;2023-05-06T15:00:30;0.20;;;0.20;;
1180;SDS011;579;52.046;8.532;2023-05-06T15:02:56;0.20;;;0.20;;
1180;SDS011;579;52.046;8.532;2023-05-06T15:05:23;0.20;;;0.20;;
1180;SDS011;579;52.046;8.532;2023-05-06T15:07:49;0.20;;;0.20;;
1180;SDS011;579;52.046;8.532;2023-05-06T15:10:16;0.20;;;0.20;;
1180;SDS011;579;52.046;8.532;2023-05-06T15:12:42;0.27;;;0.27;;
1180;SDS011;579;52.046;8.532;2023-05-06T15:20:16;0.30;;;0.30;;
1180;SDS011;579;52.046;8.532;2023-05-06T15:22:42;0.30;;;0.30;;
1180;SDS011;579;52.046;8.532;2023-05-06T15:25:09;0.43;;;0.43;;
1180;SDS011;579;52.046;8.532;2023-05-06T15:27:35;0.30;;;0.30;;
1180;SDS011;579;52.046;8.532;2023-05-06T15:30:02;0.40;;;0.40;;
1180;SDS011;579;52.046;8.532;2023-05-06T15:32:29;0.47;;;0.47;;
1180;SDS011;579;52.046;8.532;2023-05-06T15:34:56;0.30;;;0.30;;
1180;SDS011;579;52.046;8.532;2023-05-06T15:40:03;0.20;;;0.20;;
1180;SDS011;579;52.046;8.532;2023-05-06T15:42:35;0.10;;;0.10;;
1180;SDS011;579;52.046;8.532;2023-05-06T15:45:02;0.30;;;0.30;;
1180;SDS011;579;52.046;8.532;2023-05-06T15:47:30;0.20;;;0.20;;
1180;SDS011;579;52.046;8.532;2023-05-06T15:49:57;0.20;;;0.20;;
1180;SDS011;579;52.046;8.532;2023-05-06T15:52:23;0.20;;;0.20;;
1180;SDS011;579;52.046;8.532;2023-05-06T15:54:50;0.20;;;0.20;;
1180;SDS011;579;52.046;8.532;2023-05-06T16:01:59;0.30;;;0.30;;
1180;SDS011;579;52.046;8.532;2023-05-06T16:04:26;0.30;;;0.30;;
1180;SDS011;579;52.046;8.532;2023-05-06T16:06:52;0.20;;;0.20;;
1180;SDS011;579;52.046;8.532;2023-05-06T16:09:18;0.37;;;0.37;;
1180;SDS011;579;52.046;8.532;2023-05-06T16:11:45;0.30;;;0.30;;
1180;SDS011;579;52.046;8.532;2023-05-06T16:14:11;0.27;;;0.27;;
1180;SDS011;579;52.046;8.532;2023-05-06T16:16:38;0.30;;;0.30;;
1180;SDS011;579;52.046;8.532;2023-05-06T16:21:47;0.50;;;0.50;;
1180;SDS011;579;52.046;8.532;2023-05-06T16:24:14;0.50;;;0.50;;
1180;SDS011;579;52.046;8.532;2023-05-06T16:26:40;0.40;;;0.40;;
1180;SDS011;579;52.046;8.532;2023-05-06T16:29:07;0.40;;;0.40;;
1180;SDS011;579;52.046;8.532;2023-05-06T16:31:34;0.50;;;0.50;;
1180;SDS011;579;52.046;8.532;2023-05-06T16:34:01;0.40;;;0.40;;
1180;SDS011;579;52.046;8.532;2023-05-06T16:36:27;0.30;;;0.30;;
1180;SDS011;579;52.046;8.532;2023-05-06T16:43:36;0.30;;;0.30;;
1180;SDS011;579;52.046;8.532;2023-05-06T16:46:02;0.40;;;0.40;;
1180;SDS011;579;52.046;8.532;2023-05-06T16:48:30;0.30;;;0.30;;
1180;SDS011;579;52.046;8.532;2023-05-06T16:50:56;0.30;;;0.30;;
1180;SDS011;579;52.046;8.532;2023-05-06T16:53:22;0.30;;;0.30;;
1180;SDS011;579;52.046;8.532;2023-05-06T16:55:51;0.30;;;0.30;;
1180;SDS011;579;52.046;8.532;2023-05-06T16:58:18;0.22;;;0.22;;
1180;SDS011;579;52.046;8.532;2023-05-06T17:01:04;0.30;;;0.30;;
1180;SDS011;579;52.046;8.532;2023-05-06T17:03:32;0.30;;;0.30;;
1180;SDS011;579;52.046;8.532;2023-05-06T17:06:05;0.30;;;0.30;;
1180;SDS011;579;52.046;8.532;2023-05-06T17:08:32;0.20;;;0.20;;
1180;SDS011;579;52.046;8.532;2023-05-06T17:10:58;0.00;;;0.00;;
1180;SDS011;579;52.046;8.532;2023-05-06T17:13:29;0.00;;;0.00;;
1180;SDS011;579;52.046;8.532;2023-05-06T17:15:56;0.00;;;0.00;;
1180;SDS011;579;52.046;8.532;2023-05-06T17:21:06;0.00;;;0.00;;
1180;SDS011;579;52.046;8.532;2023-05-06T17:23:34;0.00;;;0.00;;
1180;SDS011;579;52.046;8.532;2023-05-06T17:26:00;0.00;;;0.00;;
1180;SDS011;579;52.046;8.532;2023-05-06T17:28:27;0.00;;;0.00;;
1180;SDS011;579;52.046;8.532;2023-05-06T17:30:54;0.03;;;0.03;;
1180;SDS011;579;52.046;8.532;2023-05-06T17:33:22;0.00;;;0.00;;
1180;SDS011;579;52.046;8.532;2023-05-06T17:35:49;0.00;;;0.00;;
1180;SDS011;579;52.046;8.532;2023-05-06T17:39:14;0.00;;;0.00;;
1180;SDS011;579;52.046;8.532;2023-05-06T17:41:41;0.00;;;0.00;;
1180;SDS011;579;52.046;8.532;2023-05-06T17:44:08;0.00;;;0.00;;
1180;SDS011;579;52.046;8.532;2023-05-06T17:46:36;0.00;;;0.00;;
1180;SDS011;579;52.046;8.532;2023-05-06T17:49:02;0.00;;;0.00;;
1180;SDS011;579;52.046;8.532;2023-05-06T17:51:29;0.00;;;0.00;;
1180;SDS011;579;52.046;8.532;2023-05-06T17:54:00;0.00;;;0.00;;
1180;SDS011;579;52.046;8.532;2023-05-06T18:00:00;0.10;;;0.10;;
1180;SDS011;579;52.046;8.532;2023-05-06T18:02:34;0.00;;;0.00;;
1180;SDS011;579;52.046;8.532;2023-05-06T18:05:03;0.00;;;0.00;;
1180;SDS011;579;52.046;8.532;2023-05-06T18:07:30;0.00;;;0.00;;
1180;SDS011;579;52.046;8.532;2023-05-06T18:09:59;0.00;;;0.00;;
1180;SDS011;579;52.046;8.532;2023-05-06T18:12:25;0.00;;;0.00;;
1180;SDS011;579;52.046;8.532;2023-05-06T18:17:31;0.00;;;0.00;;
1180;SDS011;579;52.046;8.532;2023-05-06T18:19:58;0.00;;;0.00;;
1180;SDS011;579;52.046;8.532;2023-05-06T18:22:24;0.00;;;0.00;;
1180;SDS011;579;52.046;8.532;2023-05-06T18:24:51;0.00;;;0.00;;
1180;SDS011;579;52.046;8.532;2023-05-06T18:27:19;0.00;;;0.00;;
1180;SDS011;579;52.046;8.532;2023-05-06T18:29:45;0.00;;;0.00;;
1180;SDS011;579;52.046;8.532;2023-05-06T18:32:12;0.00;;;0.00;;
1180;SDS011;579;52.046;8.532;2023-05-06T18:37:18;0.00;;;0.00;;
1180;SDS011;579;52.046;8.532;2023-05-06T18:39:44;0.00;;;0.00;;
1180;SDS011;579;52.046;8.532;2023-05-06T18:42:10;0.00;;;0.00;;
1180;SDS011;579;52.046;8.532;2023-05-06T18:44:37;0.00;;;0.00;;
1180;SDS011;579;52.046;8.532;2023-05-06T18:47:03;0.00;;;0.00;;
1180;SDS011;579;52.046;8.532;2023-05-06T18:49:30;0.00;;;0.00;;
1180;SDS011;579;52.046;8.532;2023-05-06T18:51:56;0.00;;;0.00;;
1180;SDS011;579;52.046;8.532;2023-05-06T18:59:26;0.00;;;0.00;;